Time;durP1;ratioP1;P1;durP2;ratioP2;P2;SDS_P1;SDS_P2;PMS_P1;PMS_P2;Temp;Humidity;BMP_temperature;BMP_pressure;BME280_temperature;BME280_humidity;BME280_pressure;Samples;Min_cycle;Max_cycle;Signal;HPM_P1;HPM_P2
2022/03/15 00:00:28;;;;;;;25.63;19.57;;;7.20;79.30;;;;;;5015904;28;20262;-68
2022/03/15 00:02:57;;;;;;;30.27;21.23;;;7.10;78.80;;;;;;5000974;28;20235;-68
2022/03/15 00:05:26;;;;;;;28.60;20.17;;;7.10;78.50;;;;;;4998218;28;20222;-68
2022/03/15 00:07:53;;;;;;;29.43;20.87;;;7.00;78.70;;;;;;5017839;28;20201;-68
2022/03/15 00:10:20;;;;;;;27.73;20.90;;;6.90;79.00;;;;;;5015935;28;20667;-68
2022/03/15 00:12:48;;;;;;;29.90;20.67;;;6.80;79.60;;;;;;5017572;28;20211;-68
2022/03/15 00:15:15;;;;;;;25.70;19.07;;;6.70;78.80;;;;;;5018885;28;20277;-68
2022/03/15 00:17:43;;;;;;;29.97;21.07;;;6.70;78.70;;;;;;5018112;28;20202;-68
2022/03/15 00:20:14;;;;;;;29.40;21.10;;;6.60;79.00;;;;;;5019126;28;20219;-68
2022/03/15 00:22:42;;;;;;;27.10;20.13;;;6.60;79.70;;;;;;5018294;28;20214;-68
2022/03/15 00:25:16;;;;;;;35.90;24.03;;;6.60;79.50;;;;;;5014699;28;20542;-68
2022/03/15 00:27:52;;;;;;;31.50;22.83;;;6.50;79.70;;;;;;5015157;28;20648;-68
2022/03/15 00:30:21;;;;;;;30.63;22.27;;;6.50;80.80;;;;;;5016730;28;20194;-68
2022/03/15 00:32:52;;;;;;;27.30;21.53;;;6.40;81.50;;;;;;5017901;28;20199;-68
2022/03/15 00:35:21;;;;;;;26.20;19.20;;;6.40;81.60;;;;;;5012977;28;20685;-68
2022/03/15 00:37:51;;;;;;;27.27;21.87;;;6.30;80.80;;;;;;5017109;28;20295;-68
2022/03/15 00:40:19;;;;;;;31.80;21.17;;;6.30;80.20;;;;;;5014166;28;20288;-68
2022/03/15 00:42:52;;;;;;;32.67;21.73;;;6.30;80.30;;;;;;5008335;28;20291;-68
2022/03/15 00:45:28;;;;;;;32.40;22.93;;;6.20;80.70;;;;;;5016176;28;20572;-68
2022/03/15 00:47:56;;;;;;;27.33;21.93;;;6.20;81.30;;;;;;5017848;28;20213;-68
2022/03/15 00:50:24;;;;;;;30.57;21.73;;;6.20;82.00;;;;;;4998448;28;20278;-68
2022/03/15 00:52:53;;;;;;;31.33;21.57;;;6.20;82.10;;;;;;5001804;28;20203;-68
2022/03/15 00:55:20;;;;;;;29.77;21.63;;;6.20;82.10;;;;;;4998189;28;20218;-68
2022/03/15 00:57:48;;;;;;;25.23;19.50;;;6.20;82.10;;;;;;5013689;28;20217;-68
2022/03/15 01:00:16;;;;;;;25.17;17.77;;;6.20;82.00;;;;;;5015308;28;20243;-68
2022/03/15 01:02:43;;;;;;;30.07;20.07;;;6.20;81.60;;;;;;4997719;28;20250;-68
2022/03/15 01:05:10;;;;;;;25.53;20.03;;;6.10;81.00;;;;;;5006636;28;20211;-68
2022/03/15 01:07:39;;;;;;;28.50;19.77;;;6.20;80.90;;;;;;5014596;28;20532;-68
2022/03/15 01:10:07;;;;;;;26.37;19.53;;;6.10;80.60;;;;;;5014285;28;20641;-68
2022/03/15 01:12:34;;;;;;;32.37;22.03;;;6.10;80.60;;;;;;4996904;28;20648;-68
2022/03/15 01:15:06;;;;;;;30.87;22.40;;;6.10;80.90;;;;;;5011155;28;20527;-68
2022/03/15 01:17:34;;;;;;;29.40;22.00;;;6.10;81.40;;;;;;4999272;28;20215;-68
2022/03/15 01:20:03;;;;;;;33.57;22.93;;;6.10;81.70;;;;;;4998714;28;20215;-68
2022/03/15 01:22:30;;;;;;;35.40;23.23;;;6.10;82.00;;;;;;5016660;28;20226;-68
2022/03/15 01:24:57;;;;;;;33.07;23.20;;;6.10;82.40;;;;;;4999932;28;20214;-68
2022/03/15 01:27:24;;;;;;;34.30;24.20;;;6.10;82.60;;;;;;4999157;28;20213;-68
2022/03/15 01:29:54;;;;;;;29.20;22.13;;;6.00;82.40;;;;;;5013956;28;20203;-68
2022/03/15 01:32:22;;;;;;;31.30;21.90;;;6.00;82.60;;;;;;5014059;28;20253;-68
2022/03/15 01:34:49;;;;;;;33.30;22.87;;;6.00;83.10;;;;;;5013536;28;20203;-68
2022/03/15 01:37:16;;;;;;;31.40;23.43;;;5.90;83.10;;;;;;4998200;28;20209;-68
2022/03/15 01:39:43;;;;;;;32.00;24.00;;;5.90;83.10;;;;;;5017627;28;20199;-68
2022/03/15 01:42:10;;;;;;;32.13;21.40;;;5.90;83.30;;;;;;5006917;28;20266;-68
2022/03/15 01:44:45;;;;;;;31.70;21.23;;;5.90;83.60;;;;;;5001963;28;20197;-68
2022/03/15 01:47:13;;;;;;;29.63;21.97;;;5.80;82.60;;;;;;5018175;28;20542;-68
2022/03/15 01:49:41;;;;;;;26.73;20.13;;;5.80;82.80;;;;;;5018009;28;20548;-68
2022/03/15 01:52:13;;;;;;;25.00;20.20;;;5.70;83.00;;;;;;5021498;28;20524;-68
2022/03/15 01:54:40;;;;;;;27.87;19.27;;;5.70;82.20;;;;;;5018320;28;20198;-68
2022/03/15 01:57:09;;;;;;;28.10;20.33;;;5.60;81.90;;;;;;5003720;28;20201;-68
2022/03/15 01:59:38;;;;;;;33.70;22.17;;;5.60;81.90;;;;;;5003134;28;20305;-68
2022/03/15 02:02:06;;;;;;;27.47;20.73;;;5.60;82.20;;;;;;5006846;28;20237;-68
2022/03/15 02:04:36;;;;;;;29.50;20.80;;;5.60;82.50;;;;;;4999661;28;20275;-68
2022/03/15 02:07:07;;;;;;;30.00;21.70;;;5.60;82.60;;;;;;5009810;28;20277;-68
2022/03/15 02:09:34;;;;;;;30.77;21.67;;;5.60;82.90;;;;;;5009311;28;20640;-68
2022/03/15 02:12:02;;;;;;;30.80;21.90;;;5.60;83.00;;;;;;5017435;28;20307;-68
2022/03/15 02:14:30;;;;;;;33.10;22.37;;;5.70;83.00;;;;;;5018751;28;20289;-68
2022/03/15 02:16:57;;;;;;;27.83;20.20;;;5.70;82.50;;;;;;4999392;28;20206;-67
2022/03/15 02:19:27;;;;;;;31.90;22.60;;;5.70;82.20;;;;;;5020530;28;20238;-67
2022/03/15 02:21:58;;;;;;;32.07;20.97;;;5.70;82.80;;;;;;5019560;28;20222;-67
2022/03/15 02:24:25;;;;;;;31.80;23.37;;;5.70;83.00;;;;;;5021109;28;20277;-67
2022/03/15 02:26:52;;;;;;;40.27;25.70;;;5.70;82.80;;;;;;5019332;28;20528;-67
2022/03/15 02:29:20;;;;;;;35.73;26.33;;;5.70;83.30;;;;;;5017115;28;20304;-67
2022/03/15 02:31:48;;;;;;;36.67;25.17;;;5.70;84.00;;;;;;5018071;28;20211;-67
2022/03/15 02:34:17;;;;;;;30.57;23.67;;;5.70;84.50;;;;;;5015977;28;20206;-67
2022/03/15 02:36:44;;;;;;;38.43;25.20;;;5.70;84.90;;;;;;5015913;28;20235;-67
2022/03/15 02:39:12;;;;;;;31.67;24.43;;;5.70;85.10;;;;;;5018149;28;20606;-67
2022/03/15 02:41:39;;;;;;;34.33;25.20;;;5.70;85.70;;;;;;5015748;28;20229;-67
2022/03/15 02:44:07;;;;;;;33.37;23.97;;;5.80;86.10;;;;;;4999050;28;20261;-67
2022/03/15 02:46:34;;;;;;;31.20;22.87;;;5.80;86.20;;;;;;5001562;28;20210;-67
2022/03/15 02:49:02;;;;;;;34.23;23.83;;;5.80;86.30;;;;;;5018974;28;20202;-67
2022/03/15 02:51:31;;;;;;;34.07;25.03;;;5.80;86.50;;;;;;5019400;28;20202;-67
2022/03/15 02:54:02;;;;;;;34.63;25.93;;;5.90;86.50;;;;;;5019847;28;20195;-67
2022/03/15 02:56:29;;;;;;;34.13;24.13;;;5.90;86.60;;;;;;5019244;28;20629;-67
2022/03/15 02:58:56;;;;;;;38.07;24.97;;;5.90;86.70;;;;;;4998510;28;20205;-67
2022/03/15 03:01:24;;;;;;;33.20;24.63;;;5.90;86.70;;;;;;5018107;28;20238;-67
2022/03/15 03:03:53;;;;;;;36.73;26.20;;;5.90;86.70;;;;;;5015685;28;20293;-68
2022/03/15 03:06:20;;;;;;;36.00;25.40;;;6.00;86.50;;;;;;5017468;28;20211;-68
2022/03/15 03:08:47;;;;;;;35.27;24.67;;;6.00;86.50;;;;;;5016005;28;20252;-68
2022/03/15 03:11:14;;;;;;;31.87;24.50;;;5.90;86.20;;;;;;5014081;28;20234;-68
2022/03/15 03:13:44;;;;;;;34.87;24.20;;;5.90;86.50;;;;;;5016201;28;20207;-68
2022/03/15 03:16:13;;;;;;;33.97;25.83;;;6.00;86.70;;;;;;5005478;28;20217;-66
2022/03/15 03:18:40;;;;;;;40.13;26.23;;;5.90;86.40;;;;;;5015768;28;20312;-68
2022/03/15 03:21:07;;;;;;;35.20;25.97;;;5.90;86.50;;;;;;5019336;28;20213;-68
2022/03/15 03:23:35;;;;;;;38.20;26.10;;;5.90;86.80;;;;;;5016637;28;20227;-68
2022/03/15 03:26:03;;;;;;;35.13;25.60;;;5.90;87.00;;;;;;5020989;28;20203;-68
2022/03/15 03:28:38;;;;;;;34.37;24.63;;;5.90;87.10;;;;;;4996737;28;20202;-68
2022/03/15 03:31:08;;;;;;;32.47;24.27;;;5.90;87.20;;;;;;5017821;28;20202;-68
2022/03/15 03:33:36;;;;;;;35.13;25.83;;;5.90;87.40;;;;;;5016121;28;20201;-68
2022/03/15 03:36:04;;;;;;;36.30;24.23;;;5.90;87.40;;;;;;5015384;28;20218;-68
2022/03/15 03:38:31;;;;;;;33.33;24.67;;;5.90;87.40;;;;;;5015602;28;20276;-68
2022/03/15 03:40:58;;;;;;;34.73;24.97;;;5.90;87.20;;;;;;5014729;28;20210;-67
2022/03/15 03:43:25;;;;;;;36.23;25.00;;;5.90;87.00;;;;;;5014928;28;20226;-67
2022/03/15 03:45:52;;;;;;;41.17;26.37;;;5.90;86.80;;;;;;5015212;28;20209;-67
2022/03/15 03:48:19;;;;;;;33.30;25.03;;;5.90;86.70;;;;;;5017154;28;20204;-67
2022/03/15 03:50:47;;;;;;;37.27;24.83;;;5.90;86.70;;;;;;5017618;28;20199;-67
2022/03/15 03:53:16;;;;;;;35.60;24.93;;;5.90;86.80;;;;;;5017563;28;20220;-67
2022/03/15 03:55:43;;;;;;;31.53;24.40;;;5.90;87.00;;;;;;5018722;28;20214;-67
2022/03/15 03:58:11;;;;;;;36.07;23.77;;;5.90;87.20;;;;;;5015790;28;20213;-67
2022/03/15 04:00:38;;;;;;;31.80;23.47;;;6.00;87.30;;;;;;5017646;28;20684;-67
2022/03/15 04:03:06;;;;;;;31.27;25.30;;;6.00;87.50;;;;;;5017665;28;20664;-67
2022/03/15 04:05:36;;;;;;;34.43;24.47;;;6.00;87.70;;;;;;5014261;28;20230;-67
2022/03/15 04:08:03;;;;;;;32.73;24.50;;;6.00;87.80;;;;;;5014535;28;20216;-67
2022/03/15 04:10:34;;;;;;;36.20;26.00;;;6.00;88.00;;;;;;5017043;28;20211;-67
2022/03/15 04:13:02;;;;;;;31.93;23.30;;;6.00;88.00;;;;;;5015542;28;20210;-67
2022/03/15 04:15:31;;;;;;;30.70;24.07;;;6.10;88.10;;;;;;5014722;28;20203;-67
2022/03/15 04:17:59;;;;;;;41.27;25.37;;;6.10;88.00;;;;;;5006182;28;20218;-67
2022/03/15 04:20:28;;;;;;;37.93;25.77;;;6.10;87.90;;;;;;4997672;28;20251;-67
2022/03/15 04:22:55;;;;;;;34.30;25.10;;;6.10;87.90;;;;;;5016431;28;20228;-67
2022/03/15 04:25:22;;;;;;;33.03;24.03;;;6.10;87.90;;;;;;5016268;28;20257;-67
2022/03/15 04:27:49;;;;;;;36.50;25.30;;;6.10;87.90;;;;;;5020696;28;20206;-67
2022/03/15 04:30:16;;;;;;;33.63;24.50;;;6.10;88.00;;;;;;5017784;28;21021;-67
2022/03/15 04:32:43;;;;;;;33.07;25.13;;;6.20;88.00;;;;;;5016002;28;20229;-67
2022/03/15 04:35:11;;;;;;;36.47;25.83;;;6.20;88.00;;;;;;5017400;28;20757;-67
2022/03/15 04:37:38;;;;;;;38.20;26.07;;;6.20;88.00;;;;;;5015452;28;20203;-67
2022/03/15 04:40:07;;;;;;;35.63;26.07;;;6.30;87.80;;;;;;5013933;28;20201;-67
2022/03/15 04:42:38;;;;;;;35.20;25.10;;;6.30;87.70;;;;;;5013558;28;20223;-67
2022/03/15 04:45:06;;;;;;;37.70;26.07;;;6.30;87.60;;;;;;5014061;28;20203;-67
2022/03/15 04:47:34;;;;;;;36.83;27.10;;;6.30;87.70;;;;;;5013977;28;20253;-67
2022/03/15 04:50:01;;;;;;;38.73;26.47;;;6.30;87.60;;;;;;5015561;28;20207;-67
2022/03/15 04:52:28;;;;;;;34.50;25.43;;;6.30;87.60;;;;;;5014469;28;20202;-68
2022/03/15 04:54:55;;;;;;;39.27;27.07;;;6.40;87.60;;;;;;5017773;28;20203;-68
2022/03/15 04:57:23;;;;;;;37.67;26.17;;;6.40;87.80;;;;;;5016479;28;20284;-68
2022/03/15 04:59:49;;;;;;;34.90;26.33;;;6.40;87.90;;;;;;5016262;28;20213;-68
2022/03/15 05:02:16;;;;;;;36.60;25.90;;;6.40;88.00;;;;;;5000855;28;20241;-68
2022/03/15 05:04:44;;;;;;;32.83;26.60;;;6.40;88.10;;;;;;5015873;28;20273;-68
2022/03/15 05:07:11;;;;;;;36.80;25.77;;;6.40;88.10;;;;;;5014768;28;20211;-68
2022/03/15 05:11:06;;;;;;;37.70;26.50;;;6.50;88.10;;;;;;5013905;28;20273;-68
2022/03/15 05:12:28;;;;;;;32.03;24.73;;;6.50;88.00;;;;;;5014564;28;20218;-68
2022/03/15 05:14:55;;;;;;;37.43;25.23;;;6.50;88.00;;;;;;5017561;28;20204;-68
2022/03/15 05:17:23;;;;;;;34.53;24.43;;;6.50;88.00;;;;;;5017766;28;20238;-68
2022/03/15 05:19:50;;;;;;;35.67;24.73;;;6.50;87.90;;;;;;5019166;28;20213;-68
2022/03/15 05:22:21;;;;;;;34.43;26.20;;;6.50;87.90;;;;;;5017851;28;20207;-68
2022/03/15 05:24:48;;;;;;;33.77;25.00;;;6.50;87.80;;;;;;5021060;28;20518;-68
2022/03/15 05:27:16;;;;;;;37.23;26.73;;;6.50;87.90;;;;;;5017490;28;20228;-68
2022/03/15 05:29:43;;;;;;;41.73;27.97;;;6.50;87.80;;;;;;5020628;28;20203;-68
2022/03/15 05:32:10;;;;;;;36.83;26.73;;;6.60;88.00;;;;;;5021488;28;20203;-68
2022/03/15 05:34:37;;;;;;;37.17;27.07;;;6.60;88.00;;;;;;5019503;28;20512;-68
2022/03/15 05:37:06;;;;;;;35.57;26.27;;;6.60;88.00;;;;;;5020312;28;20246;-68
2022/03/15 05:39:33;;;;;;;33.40;25.33;;;6.60;88.00;;;;;;5020721;28;20210;-68
2022/03/15 05:42:00;;;;;;;36.43;26.23;;;6.60;88.10;;;;;;4999794;28;20211;-68
2022/03/15 05:44:27;;;;;;;34.50;25.53;;;6.60;88.20;;;;;;5017590;28;20230;-68
2022/03/15 05:46:55;;;;;;;31.97;25.87;;;6.60;88.30;;;;;;5017422;28;20210;-68
2022/03/15 05:49:22;;;;;;;42.03;27.73;;;6.70;88.40;;;;;;5017077;28;20207;-68
2022/03/15 05:51:50;;;;;;;39.20;28.20;;;6.70;88.30;;;;;;5018721;28;20197;-68
2022/03/15 05:54:17;;;;;;;38.40;27.60;;;6.70;88.30;;;;;;5017883;28;20207;-68
2022/03/15 05:56:44;;;;;;;35.43;26.00;;;6.70;88.40;;;;;;5017862;28;20217;-68
2022/03/15 05:59:11;;;;;;;35.53;27.30;;;6.70;88.40;;;;;;5020233;28;20219;-68
2022/03/15 06:01:39;;;;;;;37.47;28.67;;;6.70;88.60;;;;;;5020576;28;20246;-68
2022/03/15 06:04:07;;;;;;;39.60;26.67;;;6.70;88.70;;;;;;4999719;28;20277;-68
2022/03/15 06:06:34;;;;;;;39.87;29.63;;;6.70;88.60;;;;;;5016818;28;20265;-68
2022/03/15 06:09:02;;;;;;;45.23;29.97;;;6.70;88.60;;;;;;5017588;28;20206;-68
2022/03/15 06:11:32;;;;;;;43.13;30.97;;;6.70;88.70;;;;;;5018863;28;20214;-67
2022/03/15 06:13:59;;;;;;;41.50;29.50;;;6.70;88.70;;;;;;5017828;28;20208;-67
2022/03/15 06:16:26;;;;;;;41.60;28.30;;;6.70;88.80;;;;;;5016855;28;20248;-67
2022/03/15 06:18:53;;;;;;;42.60;30.30;;;6.80;88.90;;;;;;5016230;28;20211;-67
2022/03/15 06:21:20;;;;;;;46.57;29.40;;;6.80;89.10;;;;;;5016403;28;20545;-67
2022/03/15 06:23:47;;;;;;;43.70;30.60;;;6.90;89.20;;;;;;5016408;28;20326;-67
2022/03/15 06:26:34;;;;;;;48.30;29.47;;;6.90;89.00;;;;;;5018095;28;20203;-67
2022/03/15 06:29:03;;;;;;;44.60;31.80;;;7.00;89.00;;;;;;5017276;28;20218;-67
2022/03/15 06:31:32;;;;;;;43.07;31.60;;;7.00;88.90;;;;;;5019258;28;20352;-67
2022/03/15 06:33:59;;;;;;;47.13;31.43;;;7.10;88.70;;;;;;5018482;28;20199;-68
2022/03/15 06:36:27;;;;;;;46.73;31.73;;;7.10;88.40;;;;;;5019089;28;20205;-68
2022/03/15 06:38:54;;;;;;;46.73;31.67;;;7.20;88.20;;;;;;5019298;28;20207;-68
2022/03/15 06:41:21;;;;;;;44.63;33.30;;;7.30;87.90;;;;;;5017627;28;20648;-68
2022/03/15 06:43:48;;;;;;;46.07;31.23;;;7.30;87.50;;;;;;5015808;28;20231;-68
2022/03/15 06:46:15;;;;;;;46.90;33.53;;;7.40;87.30;;;;;;4999187;28;20558;-68
2022/03/15 06:48:42;;;;;;;47.57;32.50;;;7.50;87.20;;;;;;5018046;28;20203;-68
2022/03/15 06:51:10;;;;;;;43.87;30.10;;;7.60;86.90;;;;;;5015617;28;20200;-68
2022/03/15 06:53:38;;;;;;;50.30;34.27;;;7.70;86.60;;;;;;4998023;28;20699;-68
2022/03/15 06:56:05;;;;;;;49.93;34.73;;;7.70;85.80;;;;;;5016569;28;20256;-68
2022/03/15 06:58:32;;;;;;;48.53;31.53;;;7.80;85.50;;;;;;5000328;28;20219;-68
2022/03/15 07:00:59;;;;;;;50.20;33.47;;;7.90;85.40;;;;;;5018117;28;20239;-68
2022/03/15 07:03:27;;;;;;;50.67;33.57;;;8.00;85.30;;;;;;5002175;28;20532;-68
2022/03/15 07:05:54;;;;;;;48.17;32.53;;;8.10;85.10;;;;;;5020288;28;20211;-68
2022/03/15 07:08:21;;;;;;;47.60;33.13;;;8.20;84.80;;;;;;5018230;28;20268;-68
2022/03/15 07:10:48;;;;;;;46.30;32.87;;;8.30;84.40;;;;;;4998466;28;20211;-68
2022/03/15 07:13:15;;;;;;;48.30;34.97;;;8.40;83.90;;;;;;5016805;28;20605;-68
2022/03/15 07:15:42;;;;;;;47.03;31.57;;;8.40;83.50;;;;;;5016070;28;20231;-68
2022/03/15 07:18:09;;;;;;;48.27;32.83;;;8.50;83.80;;;;;;5015503;28;20289;-68
2022/03/15 07:20:37;;;;;;;41.90;32.70;;;8.60;82.80;;;;;;5017487;28;20213;-68
2022/03/15 07:23:04;;;;;;;47.83;32.17;;;8.70;82.50;;;;;;5008831;28;20211;-68
2022/03/15 07:25:31;;;;;;;49.83;33.63;;;8.80;82.20;;;;;;5015940;28;20195;-68
2022/03/15 07:27:58;;;;;;;44.10;32.87;;;8.80;81.70;;;;;;5016085;28;20215;-68
2022/03/15 07:30:26;;;;;;;46.47;33.50;;;8.90;81.10;;;;;;5015033;28;20204;-68
2022/03/15 07:32:53;;;;;;;46.73;33.53;;;9.00;80.70;;;;;;5017234;28;20230;-68
2022/03/15 07:35:20;;;;;;;47.63;34.73;;;9.00;80.50;;;;;;5017651;28;20206;-68
2022/03/15 07:37:51;;;;;;;43.80;33.43;;;9.10;80.30;;;;;;5020076;28;20641;-68
2022/03/15 07:40:19;;;;;;;47.70;34.60;;;9.10;79.80;;;;;;5017296;28;20211;-68
2022/03/15 07:42:46;;;;;;;44.90;34.57;;;9.10;79.60;;;;;;5016243;28;20542;-68
2022/03/15 07:45:13;;;;;;;48.90;32.53;;;9.20;79.80;;;;;;5017105;28;20261;-68
2022/03/15 07:47:40;;;;;;;46.93;32.53;;;9.30;79.70;;;;;;5015081;28;20296;-68
2022/03/15 07:50:08;;;;;;;48.13;34.53;;;9.40;79.40;;;;;;5015438;28;20204;-68
2022/03/15 07:52:36;;;;;;;46.03;33.67;;;9.40;79.30;;;;;;4999907;28;20214;-68
2022/03/15 07:55:03;;;;;;;44.70;34.03;;;9.50;79.10;;;;;;5015293;28;20223;-68
2022/03/15 07:57:30;;;;;;;47.07;33.40;;;9.50;79.00;;;;;;5016428;28;20196;-68
2022/03/15 07:59:57;;;;;;;47.83;35.47;;;9.60;79.00;;;;;;5017832;28;20223;-68
2022/03/15 08:02:25;;;;;;;43.83;33.77;;;9.70;79.10;;;;;;5016226;28;20669;-68
2022/03/15 08:04:53;;;;;;;48.53;33.53;;;9.80;78.90;;;;;;5017638;28;20215;-68
2022/03/15 08:07:23;;;;;;;49.47;34.40;;;9.90;78.80;;;;;;5019836;28;20542;-68
2022/03/15 08:09:51;;;;;;;43.67;32.17;;;10.00;78.60;;;;;;5015136;28;20541;-68
2022/03/15 08:12:18;;;;;;;46.63;33.30;;;10.20;78.40;;;;;;5017180;28;20200;-68
2022/03/15 08:14:47;;;;;;;42.83;31.70;;;10.30;78.20;;;;;;5016582;28;20227;-68
2022/03/15 08:17:15;;;;;;;43.50;32.40;;;10.50;77.80;;;;;;5014992;28;20570;-68
2022/03/15 08:19:42;;;;;;;44.63;32.10;;;10.60;77.30;;;;;;5014992;28;20209;-68
2022/03/15 08:22:09;;;;;;;42.23;32.50;;;10.80;77.30;;;;;;5013931;28;20270;-68
2022/03/15 08:24:36;;;;;;;43.10;31.27;;;10.90;77.30;;;;;;5014369;28;20229;-68
2022/03/15 08:27:03;;;;;;;37.00;30.20;;;11.00;76.80;;;;;;5014365;28;20212;-68
2022/03/15 08:29:31;;;;;;;36.30;28.73;;;11.20;76.30;;;;;;5015001;28;20610;-68
2022/03/15 08:32:01;;;;;;;34.50;28.73;;;11.30;76.40;;;;;;5013724;28;20200;-68
2022/03/15 08:34:28;;;;;;;33.50;28.60;;;11.40;76.40;;;;;;5006097;28;20244;-68
2022/03/15 08:36:55;;;;;;;38.07;29.03;;;11.50;76.70;;;;;;5016146;28;20205;-68
2022/03/15 08:39:23;;;;;;;42.83;30.33;;;11.60;76.60;;;;;;5017072;28;20204;-68
2022/03/15 08:41:52;;;;;;;36.67;28.00;;;11.70;75.90;;;;;;5002300;28;20208;-68
2022/03/15 08:44:20;;;;;;;36.13;27.97;;;11.80;75.70;;;;;;5015373;28;20222;-68
2022/03/15 08:46:49;;;;;;;38.60;31.37;;;11.90;75.70;;;;;;5015257;28;20198;-68
2022/03/15 08:49:17;;;;;;;41.13;29.53;;;11.90;75.30;;;;;;5014837;28;20206;-68
2022/03/15 08:51:46;;;;;;;40.90;30.53;;;12.00;75.40;;;;;;5005479;28;20219;-68
2022/03/15 08:54:14;;;;;;;35.77;29.10;;;12.10;75.10;;;;;;5014816;28;20205;-68
2022/03/15 08:56:41;;;;;;;37.13;26.13;;;12.30;75.10;;;;;;5014570;28;20536;-68
2022/03/15 08:59:12;;;;;;;32.97;26.70;;;12.40;74.80;;;;;;5013423;28;20214;-68
2022/03/15 09:01:39;;;;;;;36.80;27.47;;;12.50;74.40;;;;;;5014151;28;20328;-68
2022/03/15 09:04:07;;;;;;;38.77;28.03;;;12.60;74.70;;;;;;5015515;28;20246;-68
2022/03/15 09:06:34;;;;;;;36.53;28.20;;;12.70;75.80;;;;;;5015384;28;20213;-68
2022/03/15 09:09:01;;;;;;;35.13;27.10;;;12.70;74.70;;;;;;5019238;28;20211;-68
2022/03/15 09:11:30;;;;;;;33.00;26.23;;;12.90;74.40;;;;;;5016794;28;20539;-68
2022/03/15 09:13:57;;;;;;;31.53;25.07;;;13.00;74.70;;;;;;5015562;28;20213;-68
2022/03/15 09:16:25;;;;;;;33.33;25.33;;;13.20;73.60;;;;;;5016567;28;20268;-68
2022/03/15 09:18:53;;;;;;;32.87;25.73;;;13.30;73.10;;;;;;5021521;28;20583;-68
2022/03/15 09:21:20;;;;;;;29.43;25.53;;;13.40;72.80;;;;;;5027544;28;20590;-68
2022/03/15 09:23:47;;;;;;;31.27;23.90;;;13.60;72.60;;;;;;5024178;28;20550;-68
2022/03/15 09:26:14;;;;;;;31.53;25.07;;;13.70;71.40;;;;;;5024812;28;20225;-68
2022/03/15 09:28:42;;;;;;;28.30;22.83;;;13.70;70.60;;;;;;5023480;28;20212;-68
2022/03/15 09:31:10;;;;;;;27.00;23.13;;;13.80;70.70;;;;;;5018730;28;20222;-68
2022/03/15 09:33:37;;;;;;;32.40;23.77;;;13.90;71.00;;;;;;5029091;28;20203;-68
2022/03/15 09:36:05;;;;;;;29.53;22.10;;;14.10;71.20;;;;;;5030466;28;20554;-68
2022/03/15 09:38:33;;;;;;;31.53;23.27;;;14.30;70.90;;;;;;5027319;28;20206;-68
2022/03/15 09:41:03;;;;;;;25.80;22.40;;;14.50;69.10;;;;;;5015210;28;20205;-68
2022/03/15 09:43:35;;;;;;;28.40;23.60;;;14.60;68.70;;;;;;5015122;28;20213;-68
2022/03/15 09:46:04;;;;;;;27.87;24.03;;;14.70;68.20;;;;;;5016918;28;20300;-68
2022/03/15 09:48:54;;;;;;;28.07;21.77;;;14.70;67.10;;;;;;5026754;28;20201;-68
2022/03/15 09:51:23;;;;;;;26.57;22.80;;;14.70;67.40;;;;;;5016859;28;20202;-68
2022/03/15 09:53:55;;;;;;;26.97;22.73;;;14.80;67.40;;;;;;5023424;28;20588;-68
2022/03/15 09:56:22;;;;;;;33.27;22.10;;;14.80;67.10;;;;;;5023815;28;20198;-68
2022/03/15 09:58:49;;;;;;;28.27;21.97;;;14.90;66.10;;;;;;5026080;28;20205;-68
2022/03/15 10:01:18;;;;;;;24.20;21.70;;;15.00;65.40;;;;;;5001841;28;20388;-68
2022/03/15 10:03:46;;;;;;;27.07;22.10;;;15.00;65.70;;;;;;5031282;28;20547;-68
2022/03/15 10:06:14;;;;;;;27.77;21.03;;;15.10;65.10;;;;;;5033127;28;20268;-68
2022/03/15 10:08:42;;;;;;;22.90;16.80;;;15.20;65.30;;;;;;5017292;28;20206;-68
2022/03/15 10:11:09;;;;;;;19.13;16.83;;;15.20;63.60;;;;;;5036014;28;20209;-68
2022/03/15 10:13:37;;;;;;;21.53;16.97;;;15.30;63.20;;;;;;5030406;28;20290;-68
2022/03/15 10:16:04;;;;;;;27.73;17.13;;;15.50;63.50;;;;;;5036024;28;20207;-68
2022/03/15 10:18:31;;;;;;;20.73;16.33;;;15.60;62.80;;;;;;5033153;28;20217;-68
2022/03/15 10:21:03;;;;;;;21.57;18.13;;;15.80;62.10;;;;;;5032616;28;20289;-68
2022/03/15 10:23:36;;;;;;;20.03;17.97;;;15.90;62.10;;;;;;5027026;28;20212;-68
2022/03/15 10:26:04;;;;;;;20.63;17.27;;;16.00;62.00;;;;;;5025045;28;20239;-68
2022/03/15 10:28:31;;;;;;;21.77;15.83;;;16.10;61.00;;;;;;5008976;28;20221;-68
2022/03/15 10:31:02;;;;;;;19.27;15.60;;;16.20;59.30;;;;;;5026193;28;20556;-68
2022/03/15 10:33:29;;;;;;;20.10;15.47;;;16.10;58.40;;;;;;5028841;28;20242;-68
2022/03/15 10:35:56;;;;;;;17.53;14.80;;;16.00;57.50;;;;;;5031538;28;20575;-68
2022/03/15 10:38:24;;;;;;;17.93;13.83;;;15.90;58.00;;;;;;5033023;28;20222;-68
2022/03/15 10:40:55;;;;;;;19.27;14.47;;;15.90;58.30;;;;;;5021011;28;20261;-68
2022/03/15 10:43:27;;;;;;;18.03;13.70;;;15.90;57.10;;;;;;5001271;28;20644;-68
2022/03/15 10:45:57;;;;;;;17.87;15.43;;;15.80;57.50;;;;;;5017055;28;20232;-68
2022/03/15 10:48:35;;;;;;;17.43;13.67;;;15.80;57.20;;;;;;5022458;28;20199;-68
2022/03/15 10:51:06;;;;;;;20.73;14.80;;;15.80;55.80;;;;;;5019882;28;20633;-68
2022/03/15 10:53:40;;;;;;;15.17;13.57;;;15.80;56.50;;;;;;5026798;28;20203;-68
2022/03/15 10:56:16;;;;;;;16.17;13.37;;;15.80;56.20;;;;;;5029169;28;20201;-68
2022/03/15 10:58:56;;;;;;;38.53;15.27;;;15.90;56.40;;;;;;5008980;28;20561;-68
2022/03/15 11:01:26;;;;;;;15.40;13.77;;;16.10;56.90;;;;;;5023925;28;20230;-68
2022/03/15 11:03:57;;;;;;;13.90;12.50;;;16.40;56.10;;;;;;5027975;28;20561;-68
2022/03/15 11:06:38;;;;;;;15.30;13.73;;;16.50;55.60;;;;;;5030388;28;20642;-68
2022/03/15 11:09:23;;;;;;;17.93;14.17;;;16.60;53.60;;;;;;5021769;28;20227;-68
2022/03/15 11:11:57;;;;;;;19.37;15.23;;;16.60;54.50;;;;;;5029756;28;20230;-68
2022/03/15 11:15:00;;;;;;;18.10;15.43;;;16.70;54.80;;;;;;5017891;28;20223;-68
2022/03/15 11:17:27;;;;;;;18.33;14.00;;;16.80;55.50;;;;;;5017521;28;20278;-68
2022/03/15 11:19:58;;;;;;;14.23;12.83;;;17.00;55.50;;;;;;5016547;28;20606;-68
2022/03/15 11:22:27;;;;;;;15.90;13.37;;;17.20;53.90;;;;;;5031563;28;20226;-68
2022/03/15 11:24:55;;;;;;;17.67;13.40;;;17.30;52.50;;;;;;5005375;28;20251;-68
2022/03/15 11:27:25;;;;;;;16.10;12.80;;;17.20;52.80;;;;;;5023594;28;20267;-68
2022/03/15 11:29:56;;;;;;;17.07;13.47;;;17.20;53.10;;;;;;5024761;28;20725;-68
2022/03/15 11:32:25;;;;;;;18.50;14.43;;;17.20;52.70;;;;;;5023121;28;20566;-68
2022/03/15 11:34:52;;;;;;;16.47;13.43;;;17.20;52.70;;;;;;5023842;28;20210;-68
2022/03/15 11:37:21;;;;;;;16.73;13.83;;;17.10;52.70;;;;;;5024078;28;20382;-68
2022/03/15 11:39:49;;;;;;;19.27;14.67;;;17.10;53.30;;;;;;5003810;28;20657;-68
2022/03/15 11:42:16;;;;;;;20.73;14.30;;;17.10;53.20;;;;;;5025717;28;20203;-68
2022/03/15 11:44:57;;;;;;;16.67;14.80;;;16.90;52.10;;;;;;5033820;28;20234;-68
2022/03/15 11:47:37;;;;;;;17.63;14.13;;;16.80;53.10;;;;;;5025743;28;20214;-68
2022/03/15 11:50:20;;;;;;;16.23;14.53;;;16.70;53.50;;;;;;5033915;28;20632;-68
2022/03/15 11:53:01;;;;;;;17.47;14.83;;;16.70;53.90;;;;;;5028433;28;20203;-68
2022/03/15 11:55:30;;;;;;;15.07;13.43;;;16.70;54.00;;;;;;5014374;28;20210;-68
2022/03/15 11:58:04;;;;;;;14.80;13.17;;;16.80;53.00;;;;;;5023094;28;20214;-68
2022/03/15 12:00:46;;;;;;;19.83;13.23;;;16.80;52.80;;;;;;5021324;28;20666;-68
2022/03/15 12:03:18;;;;;;;15.77;12.87;;;16.70;53.30;;;;;;5025505;28;20210;-68
2022/03/15 12:05:49;;;;;;;14.57;12.80;;;16.60;54.00;;;;;;5025305;28;20263;-68
2022/03/15 12:08:26;;;;;;;14.83;12.63;;;16.60;53.30;;;;;;5019855;28;20576;-70
2022/03/15 12:10:56;;;;;;;17.90;13.57;;;16.70;53.50;;;;;;5020791;28;20590;-70
2022/03/15 12:13:40;;;;;;;16.60;14.20;;;16.90;53.60;;;;;;5020482;28;20295;-70
2022/03/15 12:16:15;;;;;;;15.63;13.93;;;17.00;53.80;;;;;;5032659;28;20212;-70
2022/03/15 12:18:48;;;;;;;17.17;14.00;;;17.20;53.40;;;;;;5031474;28;20207;-70
2022/03/15 12:21:15;;;;;;;15.53;13.17;;;17.30;52.60;;;;;;5029505;28;20229;-70
2022/03/15 12:23:46;;;;;;;16.30;13.20;;;17.40;52.90;;;;;;5030306;28;20298;-70
2022/03/15 12:26:18;;;;;;;14.73;12.70;;;17.50;52.20;;;;;;5030527;28;20232;-69
2022/03/15 12:28:58;;;;;;;15.27;13.50;;;17.50;52.10;;;;;;5028591;28;20230;-69
2022/03/15 12:31:51;;;;;;;15.13;13.03;;;17.50;52.00;;;;;;5021470;28;20214;-69
2022/03/15 12:34:19;;;;;;;15.53;12.43;;;17.50;51.90;;;;;;5021086;28;20211;-71
2022/03/15 12:36:51;;;;;;;17.97;13.53;;;17.60;52.40;;;;;;5026581;28;20212;-68
2022/03/15 12:39:21;;;;;;;17.50;12.90;;;17.60;51.70;;;;;;5024665;28;20199;-68
2022/03/15 12:42:05;;;;;;;16.60;13.47;;;17.60;51.60;;;;;;5019173;28;20694;-68